Time;durP1;ratioP1;P1;durP2;ratioP2;P2;SDS_P1;SDS_P2;PMS_P1;PMS_P2;Temp;Humidity;BMP_temperature;BMP_pressure;BME280_temperature;BME280_humidity;BME280_pressure;Samples;Min_cycle;Max_cycle;Signal;HPM_P1;HPM_P2
2023/02/27 00:00:17;;;;;;;6.70;5.20;;;;;;;3.32;67.53;99468.30;107670;1251;69086;-40
2023/02/27 00:02:46;;;;;;;;;;;;;;;3.29;67.31;99470.87;106780;1251;1238773;-40
2023/02/27 00:06:46;;;;;;;6.80;5.00;;;;;;;3.13;67.05;99478.66;104115;1291;600230;-41
2023/02/27 00:09:22;;;;;;;7.30;5.80;;;;;;;3.00;66.93;99471.73;106583;1270;60761;-41
2023/02/27 00:11:52;;;;;;;7.00;5.20;;;;;;;3.01;66.38;99489.41;107034;1259;61129;-41
2023/02/27 00:14:21;;;;;;;8.20;6.10;;;;;;;2.94;66.27;99482.68;107036;1262;73395;-41
2023/02/27 00:16:57;;;;;;;6.70;5.40;;;;;;;2.88;66.06;99483.54;107074;1262;70002;-41
2023/02/27 00:19:27;;;;;;;6.40;5.10;;;;;;;2.76;65.96;99495.86;106897;1262;177144;-42
2023/02/27 00:21:55;;;;;;;6.30;5.40;;;;;;;2.67;66.33;99497.27;107265;1256;59718;-41
2023/02/27 00:24:33;;;;;;;5.40;4.50;;;;;;;2.60;66.34;99497.48;107262;1257;61354;-40
2023/02/27 00:27:08;;;;;;;5.10;4.40;;;;;;;2.61;66.02;99506.08;107246;1258;73092;-40
2023/02/27 00:29:38;;;;;;;6.90;4.80;;;;;;;2.62;65.68;99509.05;107297;1258;69689;-40
2023/02/27 00:32:06;;;;;;;7.20;4.50;;;;;;;2.58;65.16;99507.85;107252;1260;73828;-40
2023/02/27 00:34:35;;;;;;;8.00;4.50;;;;;;;2.55;65.07;99510.72;107249;1257;60822;-40
2023/02/27 00:37:03;;;;;;;6.60;4.60;;;;;;;2.53;64.92;99515.45;107181;1259;61536;-40
2023/02/27 00:39:33;;;;;;;6.20;4.90;;;;;;;2.53;64.96;99519.63;107193;1259;73362;-40
2023/02/27 00:42:01;;;;;;;5.70;4.50;;;;;;;2.53;64.64;99524.93;107033;1257;69920;-40
2023/02/27 00:44:30;;;;;;;6.30;5.40;;;;;;;2.51;64.65;99526.09;107186;1257;73667;-40
2023/02/27 00:46:59;;;;;;;7.30;5.10;;;;;;;2.47;64.65;99524.86;107072;1257;60780;-40
2023/02/27 00:49:27;;;;;;;5.90;4.80;;;;;;;2.44;64.50;99526.41;107203;1258;60873;-40
2023/02/27 00:51:56;;;;;;;6.20;4.90;;;;;;;2.40;64.80;99532.45;107196;1259;72310;-40
2023/02/27 00:54:26;;;;;;;8.30;5.60;;;;;;;2.36;64.99;99539.39;107167;1260;69805;-40
2023/02/27 00:56:54;;;;;;;6.40;5.10;;;;;;;2.35;65.35;99545.83;106448;1258;1003248;-40
2023/02/27 00:59:22;;;;;;;6.70;5.30;;;;;;;2.34;65.18;99551.41;107227;1258;59972;-40
2023/02/27 01:01:52;;;;;;;;;;;;;;;2.35;65.21;99553.59;107234;1257;62351;-40
2023/02/27 01:04:23;;;;;;;6.80;5.10;;;;;;;2.35;65.24;99552.46;107373;1258;74687;-41
2023/02/27 01:06:53;;;;;;;6.50;4.90;;;;;;;2.35;65.30;99555.74;107330;1260;69400;-39
2023/02/27 01:09:23;;;;;;;7.20;5.50;;;;;;;2.37;65.34;99555.53;107391;1256;73898;-40
2023/02/27 01:11:52;;;;;;;7.00;5.20;;;;;;;2.36;65.53;99562.13;107339;1256;59629;-40
2023/02/27 01:14:22;;;;;;;7.40;5.70;;;;;;;2.31;65.41;99569.26;107393;1256;61562;-40
2023/02/27 01:16:50;;;;;;;7.50;5.40;;;;;;;2.26;65.20;99574.17;107370;1260;74268;-40
2023/02/27 01:19:19;;;;;;;7.20;5.60;;;;;;;2.18;64.97;99574.84;107318;1256;70015;-40
2023/02/27 01:21:48;;;;;;;6.70;5.30;;;;;;;2.09;64.93;99573.38;107287;1256;71924;-40
2023/02/27 01:24:18;;;;;;;8.60;6.10;;;;;;;2.04;65.10;99570.01;107236;1257;60601;-40
2023/02/27 01:26:48;;;;;;;7.10;5.60;;;;;;;1.99;65.53;99567.98;107304;1256;60296;-40
2023/02/27 01:29:17;;;;;;;8.50;5.60;;;;;;;1.96;65.83;99561.92;107246;1260;74198;-40
2023/02/27 01:31:45;;;;;;;7.00;5.30;;;;;;;1.95;65.34;99559.21;107268;1256;69283;-40
2023/02/27 01:34:17;;;;;;;8.50;5.80;;;;;;;1.98;65.45;99567.93;107236;1256;73849;-40
2023/02/27 01:36:46;;;;;;;7.80;5.80;;;;;;;1.95;65.52;99569.59;107210;1256;60632;-40
2023/02/27 01:39:16;;;;;;;7.40;5.50;;;;;;;1.93;65.37;99567.91;107226;1260;61196;-40
2023/02/27 01:41:45;;;;;;;7.50;5.60;;;;;;;1.94;65.15;99569.89;106513;1257;1003691;-40
2023/02/27 01:44:18;;;;;;;7.00;5.60;;;;;;;1.91;65.08;99571.54;107198;1256;69683;-40
2023/02/27 01:46:47;;;;;;;7.70;6.10;;;;;;;1.85;65.00;99572.73;107254;1258;73732;-41
2023/02/27 01:49:19;;;;;;;8.10;5.70;;;;;;;1.79;64.93;99572.30;107314;1256;60780;-40
2023/02/27 01:51:54;;;;;;;7.70;6.10;;;;;;;1.72;65.19;99572.92;107312;1256;59495;-41
2023/02/27 01:54:25;;;;;;;6.60;5.30;;;;;;;1.71;65.33;99572.08;107276;1256;74039;-41
2023/02/27 01:56:53;;;;;;;8.30;6.00;;;;;;;1.69;65.40;99573.30;107273;1256;69992;-41
2023/02/27 01:59:21;;;;;;;7.90;6.20;;;;;;;1.66;65.38;99576.50;106551;1256;1002868;-39
2023/02/27 02:01:50;;;;;;;7.70;5.80;;;;;;;1.65;65.38;99576.27;107281;1256;62033;-39
2023/02/27 02:04:33;;;;;;;6.40;5.30;;;;;;;1.65;65.29;99580.65;107290;1256;61542;-39
2023/02/27 02:07:03;;;;;;;7.50;5.50;;;;;;;1.69;65.41;99586.16;107239;1257;72191;-39
2023/02/27 02:09:35;;;;;;;7.00;5.20;;;;;;;1.68;65.28;99585.44;107210;1261;69924;-39
2023/02/27 02:12:03;;;;;;;7.90;6.20;;;;;;;1.68;65.32;99583.73;107260;1256;73745;-40
2023/02/27 02:14:34;;;;;;;7.20;5.50;;;;;;;1.72;65.60;99586.39;106465;1256;1002865;-40
2023/02/27 02:17:06;;;;;;;7.10;5.20;;;;;;;1.72;65.18;99586.08;107282;1260;61533;-40
2023/02/27 02:19:44;;;;;;;7.20;5.70;;;;;;;1.59;65.51;99577.59;107279;1256;74248;-40
2023/02/27 02:22:31;;;;;;;6.70;5.70;;;;;;;1.66;65.49;99592.38;107283;1256;69841;-40
2023/02/27 02:25:29;;;;;;;8.30;6.00;;;;;;;1.63;65.79;99595.86;107275;1257;73690;-40
2023/02/27 02:28:09;;;;;;;9.70;6.00;;;;;;;1.58;65.73;99600.80;107216;1256;60783;-40
2023/02/27 02:30:47;;;;;;;8.30;6.10;;;;;;;1.50;65.56;99604.75;107297;1256;60948;-40
2023/02/27 02:33:28;;;;;;;6.50;5.20;;;;;;;1.42;65.52;99609.24;107305;1256;72108;-40
2023/02/27 02:36:28;;;;;;;7.30;5.40;;;;;;;1.40;65.52;99610.58;107256;1260;69969;-40
2023/02/27 02:39:12;;;;;;;7.30;5.90;;;;;;;1.42;65.90;99614.17;107267;1257;73526;-40
2023/02/27 02:41:52;;;;;;;9.30;5.80;;;;;;;1.37;65.94;99620.29;107253;1256;60816;-40
2023/02/27 02:44:39;;;;;;;6.90;5.30;;;;;;;1.35;66.22;99620.17;107287;1256;61608;-40
2023/02/27 02:47:24;;;;;;;7.70;6.10;;;;;;;1.31;66.33;99621.98;107278;1257;73992;-40
2023/02/27 02:50:00;;;;;;;7.80;5.90;;;;;;;1.26;66.34;99622.43;107277;1256;70004;-40
2023/02/27 02:52:37;;;;;;;7.60;6.10;;;;;;;1.21;66.63;99623.73;107057;1260;73832;-40
2023/02/27 02:55:11;;;;;;;8.20;5.80;;;;;;;1.18;66.64;99622.56;107173;1261;60743;-40
2023/02/27 02:57:46;;;;;;;8.00;5.80;;;;;;;1.17;66.83;99625.00;107032;1262;61527;-40
2023/02/27 03:00:20;;;;;;;7.40;5.90;;;;;;;1.21;66.94;99621.95;107189;1256;74251;-40
2023/02/27 03:02:52;;;;;;;7.20;5.40;;;;;;;1.27;66.83;99626.98;107241;1260;69788;-40
2023/02/27 03:05:27;;;;;;;7.40;6.20;;;;;;;1.30;66.80;99630.13;107239;1260;73910;-40
2023/02/27 03:07:57;;;;;;;7.70;5.60;;;;;;;1.30;66.43;99632.14;107221;1256;60779;-40
2023/02/27 03:10:32;;;;;;;7.70;5.70;;;;;;;1.32;66.56;99634.36;107243;1256;61343;-40
2023/02/27 03:13:07;;;;;;;6.70;5.40;;;;;;;1.31;66.36;99637.90;107269;1258;74050;-40
2023/02/27 03:15:44;;;;;;;7.70;5.90;;;;;;;1.30;66.37;99641.23;107313;1260;69625;-39
2023/02/27 03:18:19;;;;;;;7.60;6.30;;;;;;;1.30;66.39;99642.73;107247;1261;73131;-40
2023/02/27 03:20:57;;;;;;;10.20;6.90;;;;;;;1.24;66.27;99647.73;107255;1260;60418;-40
2023/02/27 03:23:35;;;;;;;8.00;5.70;;;;;;;1.17;66.15;99652.33;107346;1256;60250;-40
2023/02/27 03:26:06;;;;;;;8.20;5.90;;;;;;;1.09;66.27;99656.88;107275;1256;74278;-40
2023/02/27 03:28:37;;;;;;;7.70;5.60;;;;;;;1.10;66.47;99657.98;107236;1257;69773;-39
2023/02/27 03:31:10;;;;;;;7.70;5.80;;;;;;;1.14;66.21;99661.30;107279;1259;72069;-40
2023/02/27 03:33:50;;;;;;;9.10;6.80;;;;;;;1.18;66.54;99663.22;107324;1256;60782;-40
2023/02/27 03:36:42;;;;;;;;;;;;;;;1.21;66.32;99667.65;107363;1255;61505;-40
2023/02/27 03:39:18;;;;;;;7.50;6.20;;;;;;;1.17;66.63;99668.04;107323;1260;73950;-40
2023/02/27 03:42:14;;;;;;;8.00;6.40;;;;;;;1.17;66.43;99676.80;107274;1257;70086;-40
2023/02/27 03:45:09;;;;;;;9.50;6.60;;;;;;;1.17;65.82;99678.49;107305;1257;73504;-40
2023/02/27 03:47:38;;;;;;;8.30;6.40;;;;;;;1.13;66.07;99680.59;106537;1260;1003401;-40
2023/02/27 03:50:07;;;;;;;9.40;6.80;;;;;;;1.12;65.88;99680.92;107318;1258;61653;-40
2023/02/27 03:52:36;;;;;;;5.50;4.30;;;;;;;1.11;65.97;99682.11;107308;1260;74214;-40
2023/02/27 03:55:13;;;;;;;8.60;6.60;;;;;;;1.08;65.95;99681.67;107297;1256;70058;-40
2023/02/27 03:57:41;;;;;;;11.20;6.80;;;;;;;1.03;66.17;99681.36;107311;1257;73630;-40
2023/02/27 04:00:13;;;;;;;8.20;6.00;;;;;;;1.06;66.22;99681.07;107292;1260;62047;-40
2023/02/27 04:02:49;;;;;;;8.30;6.90;;;;;;;1.13;66.14;99687.38;107342;1259;61347;-39
2023/02/27 04:05:20;;;;;;;8.90;6.40;;;;;;;1.16;66.01;99690.37;107291;1261;73711;-40
2023/02/27 04:08:15;;;;;;;8.20;6.20;;;;;;;1.18;66.05;99697.29;107299;1259;70235;-41
2023/02/27 04:11:02;;;;;;;9.20;6.70;;;;;;;1.23;65.99;99702.02;107303;1257;73783;-40
2023/02/27 04:13:57;;;;;;;10.10;6.70;;;;;;;1.22;65.67;99705.77;107294;1257;59761;-40
2023/02/27 04:16:47;;;;;;;9.10;6.60;;;;;;;1.25;65.83;99712.50;107297;1257;61620;-40
2023/02/27 04:19:42;;;;;;;9.30;6.90;;;;;;;1.26;65.78;99720.66;107311;1258;74325;-40
2023/02/27 04:22:31;;;;;;;8.40;6.30;;;;;;;1.25;65.78;99723.68;107287;1259;69889;-40
2023/02/27 04:25:23;;;;;;;10.20;7.30;;;;;;;1.19;65.76;99721.73;107301;1257;71683;-39
2023/02/27 04:28:14;;;;;;;8.70;6.90;;;;;;;1.11;65.77;99721.94;107289;1257;60736;-39
2023/02/27 04:31:29;;;;;;;8.90;7.10;;;;;;;1.07;65.88;99725.89;107335;1257;60502;-40
2023/02/27 04:34:24;;;;;;;9.50;6.30;;;;;;;1.05;65.95;99728.81;107327;1258;73272;-39
2023/02/27 04:36:55;;;;;;;9.30;6.50;;;;;;;1.07;66.27;99735.56;106537;1258;1003660;-39
2023/02/27 04:39:50;;;;;;;8.40;6.50;;;;;;;1.07;66.16;99738.55;107300;1257;73577;-39
2023/02/27 04:42:23;;;;;;;9.80;6.80;;;;;;;1.13;66.44;99743.45;107243;1260;60801;-39
2023/02/27 04:44:59;;;;;;;9.80;6.80;;;;;;;1.17;66.22;99742.05;107303;1261;61550;-40
2023/02/27 04:47:31;;;;;;;8.70;6.70;;;;;;;1.22;66.18;99745.83;107105;1257;75251;-40
2023/02/27 04:50:08;;;;;;;9.00;7.00;;;;;;;1.23;66.06;99750.78;107300;1260;69737;-40
2023/02/27 04:52:40;;;;;;;9.10;6.90;;;;;;;1.22;65.93;99755.01;107321;1260;72918;-39
2023/02/27 04:55:11;;;;;;;8.30;6.30;;;;;;;1.22;65.90;99753.58;107323;1255;59701;-39
2023/02/27 04:57:45;;;;;;;9.60;6.20;;;;;;;1.24;65.90;99757.45;107239;1260;61087;-39
2023/02/27 05:00:14;;;;;;;9.50;6.90;;;;;;;1.25;65.95;99761.86;107334;1257;74336;-39
2023/02/27 05:02:46;;;;;;;7.90;6.10;;;;;;;1.23;65.91;99766.80;107347;1256;70415;-40
2023/02/27 05:05:17;;;;;;;10.00;7.00;;;;;;;1.19;65.96;99772.85;107301;1261;73914;-39
2023/02/27 05:07:51;;;;;;;9.20;6.50;;;;;;;1.20;65.70;99772.77;107302;1258;62419;-39
2023/02/27 05:10:27;;;;;;;9.50;6.90;;;;;;;1.25;65.62;99778.48;107310;1259;60102;-39
2023/02/27 05:13:06;;;;;;;8.90;6.60;;;;;;;1.26;65.67;99782.20;107316;1257;74898;-39
2023/02/27 05:15:47;;;;;;;9.40;6.90;;;;;;;1.27;65.93;99792.13;107306;1259;69602;-39
2023/02/27 05:18:17;;;;;;;8.70;6.80;;;;;;;1.28;65.91;99797.89;107375;1258;73898;-40
2023/02/27 05:21:15;;;;;;;10.40;7.30;;;;;;;1.26;65.62;99801.33;107318;1256;60977;-39
2023/02/27 05:24:02;;;;;;;8.70;7.00;;;;;;;1.24;65.83;99801.09;107344;1259;61277;-39
2023/02/27 05:26:31;;;;;;;9.20;6.90;;;;;;;1.20;66.01;99807.98;107314;1260;74713;-39
2023/02/27 05:29:27;;;;;;;10.50;7.50;;;;;;;1.18;65.78;99810.66;107335;1260;69780;-39
2023/02/27 05:32:20;;;;;;;9.00;6.60;;;;;;;1.18;65.79;99811.38;107288;1256;72644;-40
2023/02/27 05:34:56;;;;;;;10.10;7.30;;;;;;;1.15;66.04;99814.46;107317;1260;60771;-40
2023/02/27 05:37:31;;;;;;;9.60;7.30;;;;;;;1.11;66.24;99822.02;107341;1256;60524;-40
2023/02/27 05:40:00;;;;;;;8.20;6.50;;;;;;;1.18;66.44;99828.02;107319;1259;75146;-40
2023/02/27 05:42:35;;;;;;;10.80;7.70;;;;;;;1.28;66.12;99824.11;107317;1263;69624;-40
2023/02/27 05:45:08;;;;;;;9.70;7.30;;;;;;;1.35;65.71;99825.62;107312;1259;73833;-40
2023/02/27 05:47:39;;;;;;;9.50;6.80;;;;;;;1.34;65.66;99823.82;107346;1258;60806;-40
2023/02/27 05:50:13;;;;;;;10.20;6.80;;;;;;;1.36;65.73;99831.48;107328;1257;61551;-40
2023/02/27 05:52:41;;;;;;;9.50;7.00;;;;;;;1.37;65.70;99834.58;107286;1259;72528;-40
2023/02/27 05:55:18;;;;;;;9.60;7.20;;;;;;;1.37;65.39;99840.12;107357;1257;68941;-40
2023/02/27 05:57:51;;;;;;;9.00;6.60;;;;;;;1.35;65.17;99844.91;107258;1257;72768;-39
2023/02/27 06:00:39;;;;;;;9.40;7.00;;;;;;;1.30;65.27;99847.11;107336;1257;60414;-40
2023/02/27 06:03:08;;;;;;;10.80;7.70;;;;;;;1.29;65.32;99843.44;107258;1258;59759;-40
2023/02/27 06:05:39;;;;;;;8.90;6.70;;;;;;;1.22;65.08;99838.55;107177;1262;73551;-40
2023/02/27 06:08:08;;;;;;;10.20;7.20;;;;;;;1.13;64.90;99839.73;105847;1260;1003365;-39
2023/02/27 06:10:42;;;;;;;9.30;6.80;;;;;;;1.10;65.35;99841.54;107285;1259;73573;-40
2023/02/27 06:13:11;;;;;;;8.10;5.90;;;;;;;1.13;65.24;99843.25;107291;1257;62321;-40
2023/02/27 06:15:40;;;;;;;9.80;6.50;;;;;;;1.22;64.90;99840.86;107340;1258;61577;-40
2023/02/27 06:18:13;;;;;;;8.10;5.90;;;;;;;1.25;64.94;99841.60;107297;1257;75034;-40
2023/02/27 06:20:43;;;;;;;9.20;7.00;;;;;;;1.29;64.94;99845.30;107370;1259;67841;-41
2023/02/27 06:23:12;;;;;;;11.20;7.00;;;;;;;1.35;65.02;99851.80;107367;1258;72813;-40
2023/02/27 06:25:42;;;;;;;9.40;7.00;;;;;;;1.39;64.62;99853.84;107340;1258;60733;-40
2023/02/27 06:28:10;;;;;;;8.60;6.70;;;;;;;1.40;64.55;99852.00;107400;1258;61522;-40
2023/02/27 06:30:39;;;;;;;9.60;6.80;;;;;;;1.41;64.64;99852.73;107360;1258;75289;-40
2023/02/27 06:33:08;;;;;;;11.40;7.60;;;;;;;1.41;64.23;99853.43;107399;1257;69958;-40
2023/02/27 06:35:38;;;;;;;8.70;7.20;;;;;;;1.40;64.11;99855.04;106614;1255;1003799;-40
2023/02/27 06:38:06;;;;;;;10.00;7.40;;;;;;;1.38;64.31;99857.33;107355;1257;60328;-41
2023/02/27 06:40:35;;;;;;;10.40;7.20;;;;;;;1.36;63.95;99864.36;107363;1257;61357;-40
2023/02/27 06:43:03;;;;;;;9.90;7.00;;;;;;;1.33;64.10;99873.35;107370;1259;75181;-40
2023/02/27 06:45:32;;;;;;;10.20;7.60;;;;;;;1.32;64.09;99874.91;107291;1257;69973;-40
2023/02/27 06:48:00;;;;;;;9.90;7.20;;;;;;;1.34;64.30;99875.42;107266;1257;73910;-41
2023/02/27 06:50:29;;;;;;;10.70;6.90;;;;;;;1.35;64.04;99884.61;107302;1257;60405;-40
2023/02/27 06:52:57;;;;;;;9.40;6.70;;;;;;;1.36;63.91;99886.67;107295;1260;60477;-41
2023/02/27 06:55:26;;;;;;;8.10;6.40;;;;;;;1.38;64.00;99884.24;107295;1259;74837;-40
2023/02/27 06:57:55;;;;;;;9.70;6.70;;;;;;;1.43;63.90;99888.35;107242;1257;69318;-40
2023/02/27 07:00:23;;;;;;;9.10;7.20;;;;;;;1.47;63.50;99889.00;107286;1257;73860;-40
2023/02/27 07:02:52;;;;;;;8.90;6.70;;;;;;;1.47;63.33;99890.39;107349;1257;60287;-40
2023/02/27 07:05:21;;;;;;;8.20;6.00;;;;;;;1.43;63.36;99888.88;107382;1257;61399;-40
2023/02/27 07:07:50;;;;;;;6.80;4.90;;;;;;;1.44;63.25;99885.66;107340;1256;74980;-41
2023/02/27 07:10:19;;;;;;;8.10;6.00;;;;;;;1.49;63.30;99886.14;107380;1257;69822;-40
2023/02/27 07:12:48;;;;;;;9.00;5.90;;;;;;;1.50;63.13;99885.70;107349;1257;73888;-40
2023/02/27 07:15:17;;;;;;;8.20;6.20;;;;;;;1.52;62.99;99878.56;107395;1257;60089;-40
2023/02/27 07:17:46;;;;;;;8.00;6.00;;;;;;;1.56;62.80;99880.87;107438;1255;61071;-41
2023/02/27 07:20:17;;;;;;;8.90;6.00;;;;;;;1.61;63.02;99880.48;107374;1258;75045;-40
2023/02/27 07:22:46;;;;;;;8.60;6.30;;;;;;;1.63;62.27;99877.52;107340;1257;69919;-40
2023/02/27 07:25:14;;;;;;;8.90;6.50;;;;;;;1.58;62.06;99879.35;107509;1253;74171;-40
2023/02/27 07:27:44;;;;;;;8.50;5.70;;;;;;;1.53;62.13;99888.34;107536;1254;60638;-41
2023/02/27 07:30:14;;;;;;;7.30;5.50;;;;;;;1.51;62.03;99889.65;107529;1254;61590;-40
2023/02/27 07:32:43;;;;;;;8.00;5.80;;;;;;;1.47;61.86;99888.88;107543;1254;72648;-40
2023/02/27 07:35:12;;;;;;;7.00;5.30;;;;;;;1.44;62.01;99885.46;107541;1254;69398;-41
2023/02/27 07:37:41;;;;;;;8.50;5.80;;;;;;;1.44;61.80;99883.00;106773;1254;1003025;-40
2023/02/27 07:40:10;;;;;;;7.90;5.90;;;;;;;1.45;62.13;99889.66;107481;1254;60576;-40
2023/02/27 07:42:39;;;;;;;9.10;6.50;;;;;;;1.47;62.15;99894.84;107576;1254;60411;-41
2023/02/27 07:45:08;;;;;;;7.80;6.30;;;;;;;1.50;62.35;99898.79;107550;1253;73129;-40
2023/02/27 07:47:37;;;;;;;9.90;6.70;;;;;;;1.56;62.64;99903.00;107559;1254;68126;-40
2023/02/27 07:50:06;;;;;;;8.30;6.00;;;;;;;1.61;62.47;99903.95;107500;1255;72640;-40
2023/02/27 07:52:34;;;;;;;9.50;6.40;;;;;;;1.66;62.55;99902.92;107546;1255;60588;-40
2023/02/27 07:55:03;;;;;;;8.10;6.30;;;;;;;1.69;62.37;99902.06;107500;1254;61544;-40
2023/02/27 07:57:32;;;;;;;8.70;6.70;;;;;;;1.82;62.71;99901.48;107484;1253;74870;-40
2023/02/27 08:00:03;;;;;;;9.10;6.60;;;;;;;1.95;62.68;99905.41;107542;1256;70006;-40
2023/02/27 08:02:39;;;;;;;8.30;6.20;;;;;;;2.02;62.23;99899.69;107482;1254;72372;-41
2023/02/27 08:05:07;;;;;;;10.30;6.10;;;;;;;2.04;61.59;99903.46;107488;1253;60743;-41
2023/02/27 08:07:36;;;;;;;10.20;6.40;;;;;;;2.07;61.77;99912.19;107459;1254;61625;-40
2023/02/27 08:10:06;;;;;;;11.80;6.40;;;;;;;2.14;61.60;99914.55;107465;1254;75161;-40
2023/02/27 08:12:34;;;;;;;9.90;7.10;;;;;;;2.22;61.26;99919.88;107554;1258;69943;-41
2023/02/27 08:15:04;;;;;;;9.80;7.10;;;;;;;2.28;61.28;99916.80;107470;1253;73942;-40
2023/02/27 08:17:35;;;;;;;10.10;7.20;;;;;;;2.24;61.02;99907.93;107503;1254;60332;-40
2023/02/27 08:20:06;;;;;;;9.10;6.80;;;;;;;2.26;61.15;99916.69;107523;1254;61331;-41
2023/02/27 08:22:35;;;;;;;9.10;7.10;;;;;;;2.24;61.30;99921.58;107491;1254;73591;-40
2023/02/27 08:25:06;;;;;;;9.00;7.20;;;;;;;2.27;61.57;99933.24;107517;1254;69787;-41
2023/02/27 08:27:35;;;;;;;9.30;6.90;;;;;;;2.27;61.43;99936.77;107494;1254;73847;-40
2023/02/27 08:30:05;;;;;;;9.90;7.30;;;;;;;2.30;61.54;99933.38;107475;1254;60816;-41
2023/02/27 08:32:34;;;;;;;10.00;7.50;;;;;;;2.34;61.49;99931.33;107526;1254;61469;-40
2023/02/27 08:35:02;;;;;;;9.20;7.20;;;;;;;2.36;61.50;99931.45;107563;1253;73864;-40
2023/02/27 08:37:31;;;;;;;9.70;7.50;;;;;;;2.37;61.43;99930.73;107512;1253;69975;-40
2023/02/27 08:40:00;;;;;;;10.80;7.70;;;;;;;2.36;61.48;99925.94;107484;1253;73626;-40
2023/02/27 08:42:29;;;;;;;9.90;7.60;;;;;;;2.32;61.40;99931.10;107523;1254;60555;-40
2023/02/27 08:44:58;;;;;;;9.90;7.70;;;;;;;2.26;61.53;99930.38;107517;1254;61562;-40
2023/02/27 08:47:27;;;;;;;9.00;7.00;;;;;;;2.19;61.64;99935.55;107370;1254;75088;-40
2023/02/27 08:49:55;;;;;;;8.10;6.70;;;;;;;2.14;61.92;99934.98;107393;1253;69939;-40
2023/02/27 08:52:24;;;;;;;9.70;7.60;;;;;;;2.12;62.00;99935.34;107389;1253;73894;-40
2023/02/27 08:54:52;;;;;;;9.90;7.30;;;;;;;2.13;62.34;99940.14;107395;1254;60501;-40
2023/02/27 08:57:21;;;;;;;8.50;6.60;;;;;;;2.15;62.34;99944.65;107447;1254;61550;-40
2023/02/27 08:59:49;;;;;;;9.70;7.20;;;;;;;2.18;62.32;99945.95;107463;1254;73965;-40
2023/02/27 09:02:22;;;;;;;8.60;6.50;;;;;;;2.20;62.58;99945.82;107431;1254;68373;-40
2023/02/27 09:04:52;;;;;;;8.90;6.90;;;;;;;1.93;62.44;99898.36;107407;1254;73719;-40
2023/02/27 09:07:20;;;;;;;10.70;7.20;;;;;;;2.25;62.22;99947.89;107508;1254;60886;-41
2023/02/27 09:09:48;;;;;;;8.80;6.70;;;;;;;2.23;62.18;99951.34;107510;1253;61344;-41
2023/02/27 09:12:20;;;;;;;9.10;6.70;;;;;;;2.21;62.48;99950.73;107523;1253;75336;-41
2023/02/27 09:14:48;;;;;;;10.50;7.00;;;;;;;2.22;62.58;99948.95;107487;1257;69911;-41
2023/02/27 09:17:20;;;;;;;9.00;6.50;;;;;;;2.18;62.32;99947.39;107475;1254;73924;-41
2023/02/27 09:19:51;;;;;;;9.20;7.00;;;;;;;2.12;62.49;99944.16;107477;1253;60444;-41
2023/02/27 09:22:19;;;;;;;8.90;7.00;;;;;;;2.12;62.58;99947.05;107467;1254;61568;-41
2023/02/27 09:24:49;;;;;;;9.90;7.20;;;;;;;2.13;62.50;99948.31;107494;1253;74381;-41
2023/02/27 09:27:18;;;;;;;8.90;7.00;;;;;;;2.06;62.89;99934.40;107522;1253;69896;-41
2023/02/27 09:29:48;;;;;;;7.10;5.00;;;;;;;2.17;62.52;99942.05;107527;1254;72971;-41
2023/02/27 09:32:16;;;;;;;10.00;6.50;;;;;;;2.19;62.32;99945.34;107486;1254;60811;-41
2023/02/27 09:34:45;;;;;;;7.90;5.70;;;;;;;2.22;62.17;99945.95;107540;1254;60287;-41
2023/02/27 09:37:14;;;;;;;7.50;5.80;;;;;;;2.24;62.18;99951.44;107505;1253;75155;-41
2023/02/27 09:39:43;;;;;;;7.90;6.10;;;;;;;2.30;62.17;99951.27;107408;1254;70360;-41
2023/02/27 09:42:21;;;;;;;8.30;6.20;;;;;;;2.40;61.94;99950.27;107475;1253;73343;-41
2023/02/27 09:44:55;;;;;;;7.70;5.50;;;;;;;2.46;60.98;99954.73;107450;1253;60805;-41
2023/02/27 09:47:25;;;;;;;6.90;5.20;;;;;;;2.45;60.83;99958.50;107532;1254;61624;-41
2023/02/27 09:49:58;;;;;;;;;;;;;;;2.43;60.41;99957.17;107505;1257;74792;-41
2023/02/27 09:52:27;;;;;;;6.00;4.70;;;;;;;2.36;60.18;99964.36;107517;1253;68305;-41
2023/02/27 09:54:56;;;;;;;6.60;4.60;;;;;;;2.25;60.37;99953.72;107502;1253;72572;-41
2023/02/27 09:58:06;;;;;;;5.90;5.00;;;;;;;2.37;60.29;99967.45;107452;1253;60814;-41
2023/02/27 10:00:48;;;;;;;6.20;4.40;;;;;;;2.45;59.99;99967.92;107517;1253;61371;-41
2023/02/27 10:03:19;;;;;;;4.70;4.10;;;;;;;2.49;59.37;99963.73;107478;1253;74660;-41
2023/02/27 10:06:22;;;;;;;5.00;4.10;;;;;;;2.54;59.27;99966.06;107543;1254;68897;-41
2023/02/27 10:09:05;;;;;;;6.10;4.30;;;;;;;2.62;59.38;99965.02;107468;1254;73869;-41
2023/02/27 10:12:13;;;;;;;5.90;4.20;;;;;;;2.63;59.14;99972.84;107450;1254;60280;-41
2023/02/27 10:15:09;;;;;;;5.80;4.30;;;;;;;2.61;59.02;99976.33;107501;1256;60451;-40
2023/02/27 10:17:41;;;;;;;6.40;4.10;;;;;;;2.57;59.10;99974.30;107329;1254;74868;-40
2023/02/27 10:20:33;;;;;;;5.20;4.20;;;;;;;2.55;59.49;99974.82;107494;1254;69982;-40
2023/02/27 10:23:10;;;;;;;5.70;4.40;;;;;;;2.58;59.57;99975.73;107318;1254;73862;-40
2023/02/27 10:25:44;;;;;;;5.20;4.30;;;;;;;2.60;59.44;99979.66;107376;1254;61153;-41
2023/02/27 10:28:15;;;;;;;6.80;4.70;;;;;;;2.60;59.51;99979.99;107330;1254;61428;-40
2023/02/27 10:30:47;;;;;;;6.00;4.00;;;;;;;2.58;59.36;99979.48;107298;1257;75056;-41
2023/02/27 10:33:34;;;;;;;7.80;4.00;;;;;;;2.54;59.09;99985.66;107359;1254;69823;-41
2023/02/27 10:36:10;;;;;;;4.50;4.00;;;;;;;2.48;59.37;99986.00;107400;1254;73875;-41
2023/02/27 10:39:03;;;;;;;5.60;4.20;;;;;;;2.48;59.55;99993.47;107345;1254;60783;-41
2023/02/27 10:41:34;;;;;;;6.20;4.70;;;;;;;2.48;59.13;99993.66;107457;1254;61571;-41
2023/02/27 10:44:03;;;;;;;7.70;4.70;;;;;;;2.50;59.07;99998.95;107466;1254;75133;-41
2023/02/27 10:46:36;;;;;;;6.70;4.60;;;;;;;2.48;59.25;99999.98;107378;1254;69192;-41
2023/02/27 10:49:18;;;;;;;6.50;4.90;;;;;;;2.45;59.25;99995.81;107332;1254;73920;-41
2023/02/27 10:52:14;;;;;;;7.20;5.10;;;;;;;2.42;59.53;99999.21;107432;1254;60840;-41
2023/02/27 10:54:44;;;;;;;7.40;5.10;;;;;;;2.38;59.37;99995.58;107414;1254;61531;-41
2023/02/27 10:57:39;;;;;;;5.60;5.00;;;;;;;2.31;59.66;99991.46;107484;1254;72693;-41
2023/02/27 11:00:22;;;;;;;5.50;4.40;;;;;;;2.28;59.36;99993.42;107320;1254;69883;-41
2023/02/27 11:02:53;;;;;;;5.20;4.20;;;;;;;2.21;59.77;99990.15;107376;1254;73692;-41
2023/02/27 11:05:28;;;;;;;5.80;4.30;;;;;;;2.22;59.83;99990.20;107431;1254;60731;-41
2023/02/27 11:08:19;;;;;;;5.70;4.10;;;;;;;2.24;59.62;99986.14;107436;1254;61222;-41
2023/02/27 11:10:56;;;;;;;5.00;3.90;;;;;;;2.25;59.51;99985.65;107450;1254;73765;-41
2023/02/27 11:13:29;;;;;;;5.70;4.10;;;;;;;2.26;59.76;99988.21;107444;1254;68959;-41
2023/02/27 11:16:07;;;;;;;5.20;4.50;;;;;;;2.29;59.46;99990.63;107439;1254;72811;-41
2023/02/27 11:18:38;;;;;;;6.30;4.00;;;;;;;2.31;59.19;99989.31;107457;1254;60759;-41
2023/02/27 11:21:21;;;;;;;;;;;;;;;2.31;59.35;99991.95;107477;1254;61493;-41
2023/02/27 11:24:16;;;;;;;4.30;3.80;;;;;;;2.27;59.86;99987.06;107407;1254;74977;-41
2023/02/27 11:26:56;;;;;;;4.90;3.80;;;;;;;2.31;59.72;99986.80;107393;1254;70082;-41
2023/02/27 11:29:25;;;;;;;4.90;3.90;;;;;;;2.34;59.59;99991.20;107461;1255;72682;-41
2023/02/27 11:31:58;;;;;;;6.30;3.90;;;;;;;2.35;59.37;99992.15;107479;1254;60756;-41
2023/02/27 11:34:28;;;;;;;6.90;5.00;;;;;;;2.37;59.68;99989.13;107449;1254;61514;-41
2023/02/27 11:37:03;;;;;;;5.90;4.20;;;;;;;2.41;59.16;99987.77;107409;1254;75088;-41
2023/02/27 11:39:39;;;;;;;8.90;5.80;;;;;;;2.44;59.25;99984.36;107420;1254;66877;-41
2023/02/27 11:42:21;;;;;;;11.30;7.10;;;;;;;2.45;59.39;99979.48;107429;1254;72863;-41
2023/02/27 11:44:54;;;;;;;6.30;4.40;;;;;;;2.52;59.20;99977.98;107415;1254;60560;-41
2023/02/27 11:47:27;;;;;;;5.80;3.70;;;;;;;2.56;58.88;99980.31;107481;1253;61399;-41
2023/02/27 11:50:12;;;;;;;5.80;4.50;;;;;;;2.61;58.51;99988.54;107450;1254;75052;-41
2023/02/27 11:53:00;;;;;;;5.50;4.30;;;;;;;2.66;58.29;99995.70;107440;1254;70098;-41
2023/02/27 11:55:29;;;;;;;5.80;4.10;;;;;;;2.67;57.92;99993.77;107455;1254;73825;-41
2023/02/27 11:58:11;;;;;;;7.60;5.00;;;;;;;2.63;57.73;99997.29;107457;1254;61011;-41
2023/02/27 12:00:49;;;;;;;5.50;3.80;;;;;;;2.58;57.25;99994.63;107450;1254;61399;-41
2023/02/27 12:03:49;;;;;;;4.10;3.20;;;;;;;2.55;57.34;99997.27;107432;1257;75140;-41
2023/02/27 12:06:25;;;;;;;3.00;2.40;;;;;;;2.54;57.47;99995.18;107491;1254;68922;-41
2023/02/27 12:09:04;;;;;;;4.90;3.20;;;;;;;2.54;57.46;100000.32;107424;1254;74014;-41